Impacts METAR Board
IDs:

KPHX - Phoenix/Sky Harbor, AZ, US

Updated at: 2200 UTC 18 Nov 2018
Potential Impact None Slight Moderate High
Time 18/10Z 18/11Z 18/12Z 18/13Z 18/14Z 18/15Z 18/16Z 18/17Z 18/18Z 18/19Z 18/20Z 18/21Z 18/22Z
Temp52 52 52 52 51 51 57 61 64 67 69 71 72
Dewpt32 30 30 29 29 30 31 30 28 28 28 27 26
Altim30.04 30.05 30.05 30.07 30.08 30.09 30.10 30.12 30.12 30.09 30.05 30.01 30.00
VIS10 10 10 10 10 10 10 10 10 10 10 10 10
CIG250 250 250 250 250 250 250 250 -- -- -- -- --
CoverBKNBKNBKNBKNBKNBKNBKNBKNSCTSCTSCTFEWFEW
FltCatVFRVFRVFRVFRVFRVFRVFRVFRVFRVFRVFRVFRVFR
WX--------------------------
WDir901001101201001001300016000290
WSpd6 6 5 4 4 5 4 0 0 4 0 0 3
WGst-- -- -- -- -- -- -- -- -- -- -- -- --
Raw hourly METARs
KPHX 180951Z 09006KT 10SM BKN250 11/00 A3004 RMK AO2 SLP164 T01110000
KPHX 181051Z 10006KT 10SM BKN250 11/M01 A3005 RMK AO2 SLP167 T01111011
KPHX 181151Z 11005KT 10SM FEW200 BKN250 11/M01 A3005 RMK AO2 SLP169 T01111011 10139 20106 51007
KPHX 181251Z 12004KT 10SM SCT200 BKN250 11/M02 A3007 RMK AO2 SLP175 T01111017
KPHX 181351Z 10004KT 10SM SCT200 BKN250 11/M02 A3008 RMK AO2 SLP178 T01061017
KPHX 181451Z 10005KT 10SM SCT200 BKN250 11/M01 A3009 RMK AO2 SLP183 T01061011 51012
KPHX 181551Z 13004KT 10SM FEW200 BKN250 14/M01 A3010 RMK AO2 SLP186 T01391006
KPHX 181651Z 00000KT 10SM FEW200 BKN250 16/M01 A3012 RMK AO2 SLP190 T01611011
KPHX 181751Z 00000KT 10SM FEW200 SCT250 18/M02 A3012 RMK AO2 SLP190 T01781022 10178 20106 50008
KPHX 181851Z 16004KT 10SM FEW200 SCT250 19/M02 A3009 RMK AO2 SLP181 T01941022
KPHX 181951Z 00000KT 10SM FEW200 SCT250 21/M02 A3005 RMK AO2 SLP166 T02061022
KPHX 182051Z 00000KT 10SM FEW250 22/M03 A3001 RMK AO2 SLP154 T02171028 58034
KPHX 182151Z 29003KT 10SM FEW250 22/M03 A3000 RMK AO2 SLP149 T02221033



Page loaded:  22:24 UTC  |   02:24 PM Pacific  |   03:24 PM Mountain  |   04:24 PM Central  |   05:24 PM Eastern

 

ADVISORIES

FORECASTS

FORECASTS

OBSERVATIONS

USER TOOLS

ABOUT US